Alfred Station, New York
Current Conditions -  °F | °C
As of 9:56 PM on Sunday 21 Dec 2014 (Local Time) from KELZ Reporting Station
Overcast Overcast  
Wind Chill: 16°   Ceiling: 700
Heat Index: 25°   Visibility: 10mi
Dew Point: 21°   Wind: 8mph
Humidity: 85%   Direction: 150°SSE
Pressure: 30.22"   Gusts: NA
Location:  42.27°N, 77.76°W
Report Text: KELZ 220256Z AUTO 15007KT 10SM OVC007 M04/M06 A3022 RMK AO2 SLP263 T10391061 58006
Loading
Personal Weather Stations






























Interactive Weather Map New forecast layout! Learn more

10-Day Weather Forecast

Advertisements
Track Severe Weather on mobile